Time;durP1;ratioP1;P1;durP2;ratioP2;P2;SDS_P1;SDS_P2;PMS_P1;PMS_P2;Temp;Humidity;BMP_temperature;BMP_pressure;BME280_temperature;BME280_humidity;BME280_pressure;Samples;Min_cycle;Max_cycle;Signal;HPM_P1;HPM_P2
2023/07/05 00:00:28;;;;;;;19.92;4.80;;;;;;;-144.47;51.44;52597.91;5027669;28;20030;-72
2023/07/05 00:02:54;;;;;;;10.63;4.00;;;;;;;-144.47;51.64;52576.06;5030643;28;20068;-72
2023/07/05 00:05:20;;;;;;;8.65;4.20;;;;;;;-144.47;51.77;52605.84;5031431;28;20047;-72
2023/07/05 00:07:46;;;;;;;10.73;4.13;;;;;;;-144.47;51.69;52603.84;5031925;28;20029;-72
2023/07/05 00:10:12;;;;;;;20.88;5.93;;;;;;;-144.47;51.93;52597.91;5031618;28;20124;-72
2023/07/05 00:12:37;;;;;;;10.82;5.03;;;;;;;-144.47;51.84;52580.03;5031273;28;20037;-71
2023/07/05 00:15:04;;;;;;;14.18;4.45;;;;;;;-144.47;51.98;52572.09;5029363;28;20109;-71
2023/07/05 00:17:34;;;;;;;10.63;4.40;;;;;;;-144.47;51.99;52587.97;5030599;28;20033;-71
2023/07/05 00:20:00;;;;;;;9.45;4.05;;;;;;;-144.47;52.21;52605.84;5030871;28;20435;-71
2023/07/05 00:22:29;;;;;;;8.95;4.43;;;;;;;-144.47;52.12;52601.88;5031564;28;20029;-72
2023/07/05 00:24:54;;;;;;;11.65;4.53;;;;;;;-144.47;52.24;52593.94;5030957;28;20380;-70
2023/07/05 00:27:24;;;;;;;11.02;4.75;;;;;;;-144.47;52.28;52603.84;5031624;28;20087;-72
2023/07/05 00:29:50;;;;;;;14.13;5.32;;;;;;;-144.47;52.49;52605.84;5058821;22;20049;-66
2023/07/05 00:32:16;;;;;;;11.32;4.95;;;;;;;-144.47;52.38;52601.88;5051054;28;20032;-67
2023/07/05 00:34:41;;;;;;;10.40;4.53;;;;;;;-144.47;52.39;52611.81;5049502;28;20029;-67
2023/07/05 00:37:07;;;;;;;8.77;4.50;;;;;;;-144.47;52.01;52601.88;5048321;28;20018;-67
2023/07/05 00:39:32;;;;;;;11.38;4.63;;;;;;;-144.47;51.72;52595.91;5036391;28;20021;-66
2023/07/05 00:41:58;;;;;;;13.25;5.47;;;;;;;-144.47;51.69;52587.97;5036065;28;20102;-67
2023/07/05 00:44:23;;;;;;;13.23;4.63;;;;;;;-144.47;51.57;52582.00;5028959;28;20053;-67
2023/07/05 00:46:52;;;;;;;16.67;5.18;;;;;;;-144.47;51.31;52615.78;5029747;28;20167;-67
2023/07/05 00:49:22;;;;;;;12.63;5.32;;;;;;;-144.47;51.15;52578.03;5030713;28;20025;-67
2023/07/05 00:52:12;;;;;;;11.60;4.47;;;;;;;-144.47;50.96;52603.84;5031366;28;20100;-68
2023/07/05 00:54:47;;;;;;;17.60;4.70;;;;;;;-144.47;51.02;52582.00;5024877;28;20491;-67
2023/07/05 00:57:19;;;;;;;12.00;5.10;;;;;;;-144.47;51.33;52584.00;5023564;28;20600;-68
2023/07/05 01:00:24;;;;;;;10.35;4.90;;;;;;;-144.47;51.37;52593.94;5029162;28;20054;-67
2023/07/05 01:02:56;;;;;;;14.25;4.90;;;;;;;-144.47;51.59;52568.13;4948929;29;20027;-67
2023/07/05 01:05:23;;;;;;;15.25;5.13;;;;;;;-144.47;51.62;52613.78;4948475;29;20540;-68
2023/07/05 01:07:48;;;;;;;11.20;5.05;;;;;;;-144.47;52.02;52582.00;4937009;29;20393;-69
2023/07/05 01:10:19;;;;;;;18.02;5.93;;;;;;;-144.47;51.82;52591.94;4949838;29;20024;-70
2023/07/05 01:13:06;;;;;;;12.32;5.32;;;;;;;-144.47;51.73;52568.13;4933684;29;20027;-67
2023/07/05 01:15:39;;;;;;;13.82;5.70;;;;;;;-144.47;51.65;52580.03;4948240;29;20039;-69
2023/07/05 01:18:23;;;;;;;16.00;4.90;;;;;;;-144.47;51.91;52599.88;4949342;29;20110;-68
2023/07/05 01:21:17;;;;;;;13.27;5.97;;;;;;;-144.47;51.84;52566.13;4937088;29;20116;-68
2023/07/05 01:23:54;;;;;;;17.00;6.15;;;;;;;-144.47;51.58;52595.91;4948537;29;20623;-66
2023/07/05 01:26:20;;;;;;;12.02;5.22;;;;;;;-144.47;51.57;52591.94;4949247;29;20047;-66
2023/07/05 01:29:00;;;;;;;11.27;5.05;;;;;;;-144.47;51.53;52582.00;4947372;28;20445;-68
2023/07/05 01:31:56;;;;;;;14.18;6.13;;;;;;;-144.47;51.39;52578.03;4933513;29;20028;-67
2023/07/05 01:34:43;;;;;;;13.93;6.07;;;;;;;-144.47;51.16;52568.13;5009365;28;20633;-68
2023/07/05 01:37:20;;;;;;;11.40;5.38;;;;;;;-144.47;51.13;52589.97;5031982;28;20112;-67
2023/07/05 01:39:45;;;;;;;13.52;5.57;;;;;;;-144.47;51.04;52582.00;5033863;28;20050;-65
2023/07/05 01:42:11;;;;;;;10.73;5.88;;;;;;;-144.47;51.28;52601.88;5035770;28;20043;-68
2023/07/05 01:44:37;;;;;;;11.13;5.15;;;;;;;-144.47;51.22;52597.91;5027642;28;20088;-68
2023/07/05 01:47:35;;;;;;;11.32;5.40;;;;;;;-144.47;51.29;52580.03;5029013;28;20411;-67
2023/07/05 01:50:08;;;;;;;13.77;6.30;;;;;;;-144.47;51.52;52570.09;5029120;28;20037;-67
2023/07/05 01:52:42;;;;;;;15.85;5.80;;;;;;;-144.47;51.41;52597.91;5028692;28;20033;-68
2023/07/05 01:55:15;;;;;;;11.63;5.47;;;;;;;-144.47;51.54;52574.06;5034647;28;20632;-67
2023/07/05 01:57:51;;;;;;;12.13;5.63;;;;;;;-144.47;51.72;52609.81;5037820;28;20605;-66
2023/07/05 02:00:19;;;;;;;10.65;5.72;;;;;;;-144.47;51.46;52601.88;5027252;28;20133;-68
2023/07/05 02:02:59;;;;;;;16.02;7.13;;;;;;;-144.47;51.65;52582.00;5028977;28;20037;-68
2023/07/05 02:05:27;;;;;;;13.63;6.57;;;;;;;-144.47;51.64;52595.91;5029448;28;20044;-67
2023/07/05 02:07:53;;;;;;;;;;;;;;;-144.47;51.67;52609.81;5030605;28;20021;-66
2023/07/05 02:10:19;;;;;;;14.20;6.22;;;;;;;-144.47;51.65;52601.88;5029934;28;19916;-68
2023/07/05 02:12:44;;;;;;;12.90;6.45;;;;;;;-144.47;51.50;52593.94;5031077;28;20025;-68
2023/07/05 02:15:10;;;;;;;13.55;6.03;;;;;;;-144.47;51.47;52599.88;5027477;28;20130;-68
2023/07/05 02:17:35;;;;;;;14.07;6.45;;;;;;;-144.47;51.65;52609.81;5029789;28;20040;-65
2023/07/05 02:20:01;;;;;;;12.45;6.32;;;;;;;-144.47;51.76;52605.84;5028442;28;20022;-69
2023/07/05 02:22:26;;;;;;;14.00;6.43;;;;;;;-144.47;51.74;52587.97;5030011;28;20459;-67
2023/07/05 02:24:52;;;;;;;19.42;7.30;;;;;;;-144.47;51.75;52611.81;5028367;28;20493;-67
2023/07/05 02:27:17;;;;;;;12.15;7.05;;;;;;;-144.47;51.73;52601.88;5029723;28;20463;-66
2023/07/05 02:29:43;;;;;;;15.65;6.63;;;;;;;-144.47;51.77;52617.75;5028062;28;20036;-67
2023/07/05 02:32:08;;;;;;;14.77;6.55;;;;;;;-144.47;51.67;52582.00;5021960;28;20514;-67
2023/07/05 02:34:39;;;;;;;14.57;7.30;;;;;;;-144.47;51.53;52585.97;5020948;28;20466;-69
2023/07/05 02:37:04;;;;;;;13.07;6.85;;;;;;;-144.47;51.64;52585.97;5028767;28;20027;-68
2023/07/05 02:39:29;;;;;;;19.67;7.82;;;;;;;-144.47;51.47;52593.94;5035085;28;20030;-70
2023/07/05 02:41:55;;;;;;;14.40;7.38;;;;;;;-144.47;51.41;52560.16;5034486;28;20028;-68
2023/07/05 02:44:20;;;;;;;16.63;7.70;;;;;;;-144.47;51.36;52599.88;5027077;28;20479;-68
2023/07/05 02:46:45;;;;;;;15.15;7.10;;;;;;;-144.47;51.22;52595.91;5029008;28;20540;-66
2023/07/05 02:49:12;;;;;;;24.38;8.43;;;;;;;-144.47;51.49;52595.91;5028162;28;20414;-67
2023/07/05 02:51:38;;;;;;;16.38;7.97;;;;;;;-144.47;51.39;52548.25;5016064;28;20025;-66
2023/07/05 02:54:03;;;;;;;15.88;7.47;;;;;;;-144.47;51.49;52582.00;5028060;28;20025;-67
2023/07/05 02:56:28;;;;;;;18.52;7.65;;;;;;;-144.47;51.55;52589.97;5036071;28;20119;-68
2023/07/05 02:58:54;;;;;;;20.05;8.45;;;;;;;-144.47;51.50;52605.84;5038116;28;20025;-67
2023/07/05 03:01:19;;;;;;;23.88;8.50;;;;;;;-144.47;51.66;52589.97;5030715;28;20391;-68
2023/07/05 03:03:45;;;;;;;16.48;8.55;;;;;;;-144.47;51.67;52572.09;5032427;28;20036;-66
2023/07/05 03:06:10;;;;;;;19.48;8.60;;;;;;;-144.47;51.81;52576.06;5032401;28;20101;-68
2023/07/05 03:08:35;;;;;;;19.15;9.10;;;;;;;-144.47;51.87;52603.84;5032814;28;20379;-67
2023/07/05 03:11:01;;;;;;;17.95;8.35;;;;;;;-144.47;52.00;52615.78;5032484;28;20101;-69
2023/07/05 03:13:31;;;;;;;18.35;8.57;;;;;;;-144.47;52.08;52587.97;5031732;28;20025;-66
2023/07/05 03:15:57;;;;;;;17.05;9.10;;;;;;;-144.47;52.24;52605.84;5027517;28;20038;-63
2023/07/05 03:18:23;;;;;;;18.73;9.55;;;;;;;-144.47;52.44;52585.97;5032025;28;20032;-67
2023/07/05 03:20:49;;;;;;;16.65;9.20;;;;;;;-144.47;52.50;52601.88;5031988;28;20479;-67
2023/07/05 03:23:15;;;;;;;18.35;8.55;;;;;;;-144.47;52.72;52601.88;5033164;28;20033;-67
2023/07/05 03:25:41;;;;;;;18.92;8.55;;;;;;;-144.47;52.76;52589.97;5031373;28;20026;-67
2023/07/05 03:28:07;;;;;;;18.67;9.55;;;;;;;-144.47;52.84;52617.75;5030431;28;20029;-66
2023/07/05 03:30:34;;;;;;;19.52;9.30;;;;;;;-144.47;53.15;52605.84;5031894;28;20109;-68
2023/07/05 03:33:00;;;;;;;19.23;9.38;;;;;;;-144.47;53.19;52576.06;5033004;28;20634;-69
2023/07/05 03:35:25;;;;;;;18.17;9.85;;;;;;;-144.47;53.36;52605.84;5031564;28;20028;-67
2023/07/05 03:37:51;;;;;;;19.67;10.07;;;;;;;-144.47;53.55;52580.03;5037404;28;20033;-67
2023/07/05 03:40:16;;;;;;;20.02;10.32;;;;;;;-144.47;53.48;52584.00;5031768;28;20039;-65
2023/07/05 03:42:42;;;;;;;19.67;10.00;;;;;;;-144.47;53.32;52576.06;5038949;28;20156;-68
2023/07/05 03:45:07;;;;;;;17.25;9.40;;;;;;;-144.47;53.29;52603.84;5030451;28;20082;-68
2023/07/05 03:47:33;;;;;;;20.65;9.43;;;;;;;-144.47;53.43;52585.97;5033442;28;20104;-68
2023/07/05 03:49:58;;;;;;;19.38;10.00;;;;;;;-144.47;53.48;52597.91;5032059;28;20013;-68
2023/07/05 03:52:24;;;;;;;20.50;9.93;;;;;;;-144.47;53.59;52601.88;5032755;28;20026;-65
2023/07/05 03:54:49;;;;;;;20.98;10.63;;;;;;;-144.47;53.46;52607.84;5034628;28;20021;-67
2023/07/05 03:57:14;;;;;;;21.10;9.93;;;;;;;-144.47;53.53;52617.75;5043779;28;20029;-67
2023/07/05 03:59:40;;;;;;;18.10;10.07;;;;;;;-144.47;53.57;52584.00;5016700;28;20026;-67
2023/07/05 04:02:05;;;;;;;22.38;10.38;;;;;;;-144.47;53.66;52597.91;5031853;28;20033;-65
2023/07/05 04:04:31;;;;;;;21.50;10.93;;;;;;;-144.47;53.86;52589.97;5030208;28;20052;-67
2023/07/05 04:07:00;;;;;;;22.05;10.10;;;;;;;-144.47;53.70;52633.66;5032719;28;20041;-67
2023/07/05 04:09:25;;;;;;;19.50;10.32;;;;;;;-144.47;53.74;52578.03;5031239;28;20071;-66
2023/07/05 04:11:51;;;;;;;20.35;10.70;;;;;;;-144.47;53.73;52589.97;5032648;28;20434;-68
2023/07/05 04:14:17;;;;;;;18.02;9.85;;;;;;;-144.47;54.03;52582.00;5031329;28;20064;-67
2023/07/05 04:16:42;;;;;;;22.17;10.20;;;;;;;-144.47;53.84;52585.97;5031209;28;20053;-67
2023/07/05 04:19:08;;;;;;;22.85;11.10;;;;;;;-144.47;53.88;52582.00;5030445;28;20060;-66
2023/07/05 04:21:34;;;;;;;19.33;10.18;;;;;;;-144.47;54.08;52582.00;5031744;28;20029;-67
2023/07/05 04:23:59;;;;;;;19.98;10.57;;;;;;;-144.47;54.18;52591.94;5030909;28;20029;-67
2023/07/05 04:26:27;;;;;;;20.73;11.10;;;;;;;-144.47;54.50;52597.91;5031717;28;20053;-68
2023/07/05 04:28:52;;;;;;;24.92;11.43;;;;;;;-144.47;54.61;52580.03;5031085;28;20030;-68
2023/07/05 04:31:28;;;;;;;26.92;10.73;;;;;;;-144.47;54.70;52597.91;5030519;28;20036;-68
2023/07/05 04:33:54;;;;;;;20.02;10.43;;;;;;;-144.47;54.83;52589.97;5017975;28;20116;-68
2023/07/05 04:36:20;;;;;;;22.52;11.52;;;;;;;-144.47;54.90;52580.03;5026391;28;20510;-69
2023/07/05 04:38:45;;;;;;;20.73;10.98;;;;;;;-144.47;54.88;52560.16;5035749;28;20025;-68
2023/07/05 04:41:11;;;;;;;22.38;11.85;;;;;;;-144.47;54.60;52576.06;5031555;28;20125;-67
2023/07/05 04:43:36;;;;;;;22.48;10.65;;;;;;;-144.47;54.54;52599.88;5029765;28;20034;-65
2023/07/05 04:46:02;;;;;;;19.42;11.10;;;;;;;-144.47;54.43;52589.97;5029545;28;20259;-69
2023/07/05 04:48:29;;;;;;;19.15;10.73;;;;;;;-144.47;54.04;52587.97;5023116;28;21648;-68
2023/07/05 04:50:57;;;;;;;21.13;11.40;;;;;;;-144.47;53.71;52607.84;5014478;28;20508;-67
2023/07/05 04:53:24;;;;;;;22.02;11.95;;;;;;;-144.47;53.53;52589.97;5015644;28;20483;-68
2023/07/05 04:55:52;;;;;;;24.02;11.98;;;;;;;-144.47;53.35;52591.94;5031210;28;20091;-69
2023/07/05 04:58:19;;;;;;;22.17;11.23;;;;;;;-144.47;53.58;52595.91;5030715;28;20021;-71
2023/07/05 05:00:54;;;;;;;20.42;10.98;;;;;;;-144.47;53.45;52582.00;5027850;28;20026;-66
2023/07/05 05:03:22;;;;;;;29.80;11.93;;;;;;;-144.47;53.66;52576.06;5029972;28;20025;-65
2023/07/05 05:05:51;;;;;;;20.75;11.30;;;;;;;-144.47;53.99;52607.84;5031406;28;20167;-66
2023/07/05 05:08:19;;;;;;;22.27;11.50;;;;;;;-144.47;53.99;52589.97;5030721;28;20025;-66
2023/07/05 05:10:44;;;;;;;22.70;11.75;;;;;;;-144.47;54.00;52611.81;5030337;28;20033;-66
2023/07/05 05:13:09;;;;;;;18.88;10.93;;;;;;;-144.47;53.56;52584.00;5030161;28;20136;-70
2023/07/05 05:15:39;;;;;;;22.92;11.82;;;;;;;-144.47;53.39;52595.91;5024082;28;20171;-69
2023/07/05 05:18:06;;;;;;;23.40;11.30;;;;;;;-144.47;53.21;52601.88;5030769;28;20021;-70
2023/07/05 05:20:32;;;;;;;23.30;11.07;;;;;;;-144.47;53.15;52633.66;5029385;28;20040;-70
2023/07/05 05:22:58;;;;;;;19.90;11.55;;;;;;;-144.47;53.18;52574.06;5024660;28;20021;-65
2023/07/05 05:25:25;;;;;;;24.40;12.23;;;;;;;-144.47;53.27;52601.88;5019209;28;20025;-69
2023/07/05 05:27:50;;;;;;;22.35;11.13;;;;;;;-144.47;52.59;52580.03;5014465;28;20584;-68
2023/07/05 05:30:16;;;;;;;21.77;11.02;;;;;;;-144.47;51.96;52605.84;5028401;28;20025;-67
2023/07/05 05:32:41;;;;;;;27.60;11.85;;;;;;;-144.47;51.74;52597.91;5026036;28;20502;-68
2023/07/05 05:35:08;;;;;;;27.58;11.80;;;;;;;-144.47;52.02;52587.97;5020639;28;20051;-67
2023/07/05 05:37:33;;;;;;;25.02;10.57;;;;;;;-144.47;51.70;52584.00;5031369;28;20438;-70
2023/07/05 05:39:59;;;;;;;22.75;9.35;;;;;;;-144.47;51.49;52609.81;5023501;28;20021;-65
2023/07/05 05:42:25;;;;;;;24.35;10.10;;;;;;;-144.47;51.29;52615.78;5020055;28;20056;-69
2023/07/05 05:44:50;;;;;;;24.95;10.23;;;;;;;-144.47;50.78;52593.94;5021494;28;20515;-69
2023/07/05 05:47:16;;;;;;;26.83;10.88;;;;;;;-144.47;50.33;52605.84;5030709;28;20136;-68
2023/07/05 05:49:41;;;;;;;18.05;8.88;;;;;;;-144.47;49.68;52591.94;5028284;28;20036;-68
2023/07/05 05:52:07;;;;;;;18.55;9.30;;;;;;;-144.47;49.34;52597.91;5029961;28;20032;-65
2023/07/05 05:54:33;;;;;;;41.30;10.60;;;;;;;-144.47;49.22;52609.81;5029594;28;20505;-66
2023/07/05 05:56:58;;;;;;;16.35;8.70;;;;;;;-144.47;49.38;52584.00;5028948;28;20100;-68
2023/07/05 05:59:24;;;;;;;20.48;9.15;;;;;;;-144.47;49.41;52595.91;5028531;28;20590;-67
2023/07/05 06:01:51;;;;;;;20.48;9.27;;;;;;;-144.47;49.53;52593.94;5027680;28;20556;-70
2023/07/05 06:04:16;;;;;;;21.30;9.93;;;;;;;-144.47;49.85;52597.91;5025292;28;20387;-65
2023/07/05 06:06:42;;;;;;;19.10;7.97;;;;;;;-144.47;50.11;52619.75;5029539;28;20028;-70
2023/07/05 06:09:08;;;;;;;16.77;8.73;;;;;;;-144.47;50.42;52613.78;5029903;28;20040;-69
2023/07/05 06:11:33;;;;;;;17.67;10.02;;;;;;;-144.47;50.47;52593.94;5028793;28;20026;-69
2023/07/05 06:13:58;;;;;;;18.30;8.93;;;;;;;-144.47;50.68;52585.97;5028436;28;20027;-66
2023/07/05 06:16:24;;;;;;;17.73;8.98;;;;;;;-144.47;51.00;52601.88;5028925;28;20029;-68
2023/07/05 06:18:49;;;;;;;22.58;8.88;;;;;;;-144.47;51.17;52609.81;5029259;28;20104;-67
2023/07/05 06:21:14;;;;;;;23.08;9.30;;;;;;;-144.47;51.34;52601.88;5027758;28;20029;-68
2023/07/05 06:23:40;;;;;;;14.95;8.57;;;;;;;-144.47;51.34;52593.94;5027586;28;20116;-69
2023/07/05 06:26:05;;;;;;;19.50;8.75;;;;;;;-144.47;51.47;52550.25;5027096;28;20034;-67
2023/07/05 06:28:31;;;;;;;17.88;8.07;;;;;;;-144.47;51.77;52599.88;5040792;22;20077;-69
2023/07/05 06:31:02;;;;;;;15.35;8.00;;;;;;;-144.47;51.97;52582.00;5028899;28;20044;-68
2023/07/05 06:33:28;;;;;;;19.25;8.23;;;;;;;-144.47;52.18;52591.94;5041596;28;20751;-67
2023/07/05 06:35:53;;;;;;;15.73;6.97;;;;;;;-144.47;51.97;52599.88;5045398;28;20513;-70
2023/07/05 06:38:18;;;;;;;17.83;7.57;;;;;;;-144.47;51.97;52605.84;5036602;28;20049;-69
2023/07/05 06:40:50;;;;;;;19.15;7.60;;;;;;;-144.47;54.46;52570.09;5021233;28;20106;-68
2023/07/05 06:43:15;;;;;;;16.67;7.53;;;;;;;-144.47;55.18;52582.00;5016217;28;20062;-69
2023/07/05 06:45:40;;;;;;;13.00;6.25;;;;;;;-144.47;55.81;52589.97;5026844;28;20018;-71
2023/07/05 06:48:06;;;;;;;14.75;6.32;;;;;;;-144.47;56.10;52572.09;5025767;28;20029;-69
2023/07/05 06:50:31;;;;;;;16.55;6.80;;;;;;;-144.47;57.13;52611.81;5019149;28;20022;-68
2023/07/05 06:52:57;;;;;;;11.63;6.05;;;;;;;-144.47;56.97;52629.69;5015543;28;20472;-66
2023/07/05 06:55:22;;;;;;;21.60;8.63;;;;;;;-144.47;56.65;52611.81;5025094;28;20029;-68
2023/07/05 06:57:47;;;;;;;12.70;5.75;;;;;;;-144.47;58.13;52593.94;5015372;28;20076;-71
2023/07/05 07:00:13;;;;;;;17.92;6.68;;;;;;;-144.47;58.05;52605.84;5011704;28;20444;-69
2023/07/05 07:02:39;;;;;;;15.98;6.63;;;;;;;-144.47;58.07;52609.81;5009101;28;20125;-67
2023/07/05 07:05:04;;;;;;;13.13;5.80;;;;;;;-144.47;57.41;52580.03;5006936;28;20026;-70
2023/07/05 07:07:30;;;;;;;14.77;6.30;;;;;;;-144.47;57.66;52609.81;5015701;28;20101;-71
2023/07/05 07:09:58;;;;;;;15.27;6.25;;;;;;;-144.47;57.34;52595.91;5025112;28;20100;-69
2023/07/05 07:12:23;;;;;;;13.07;5.63;;;;;;;-144.47;57.88;52629.69;5023625;28;20141;-69
2023/07/05 07:14:49;;;;;;;13.80;5.50;;;;;;;-144.47;58.35;52589.97;5017240;28;20168;-69
2023/07/05 07:17:14;;;;;;;12.18;5.25;;;;;;;-144.47;58.68;52605.84;5019719;28;20368;-69
2023/07/05 07:19:39;;;;;;;13.32;5.15;;;;;;;-144.47;58.79;52587.97;5020152;28;20025;-70
2023/07/05 07:22:05;;;;;;;18.23;4.70;;;;;;;-144.47;60.84;52609.81;5019941;28;20041;-72
2023/07/05 07:24:31;;;;;;;14.45;5.13;;;;;;;-144.47;60.27;52593.94;5021032;28;20353;-72
2023/07/05 07:26:56;;;;;;;11.48;4.90;;;;;;;-144.47;59.64;52595.91;5020388;28;20022;-68
2023/07/05 07:29:22;;;;;;;12.57;4.50;;;;;;;-144.47;59.77;52595.91;4989862;28;20018;-69
2023/07/05 07:31:47;;;;;;;11.32;4.20;;;;;;;-144.47;59.76;52603.84;5026719;28;20521;-70
2023/07/05 07:34:13;;;;;;;12.48;3.70;;;;;;;-144.47;60.01;52589.97;5025461;28;20029;-71
2023/07/05 07:36:38;;;;;;;13.40;3.97;;;;;;;-144.47;60.15;52607.84;5007606;28;20032;-70
2023/07/05 07:39:04;;;;;;;9.93;3.85;;;;;;;-144.47;60.17;52619.75;5023792;28;20438;-70
2023/07/05 07:41:32;;;;;;;8.55;3.85;;;;;;;-144.47;60.82;52603.84;5023996;28;20367;-70
2023/07/05 07:44:03;;;;;;;8.10;3.67;;;;;;;-144.47;60.99;52601.88;5012597;28;20105;-69
2023/07/05 07:46:30;;;;;;;7.47;3.47;;;;;;;-144.47;61.50;52597.91;5018231;28;20129;-71
2023/07/05 07:48:57;;;;;;;12.13;4.18;;;;;;;-144.47;62.03;52613.78;5009797;28;20025;-72
2023/07/05 07:51:24;;;;;;;7.88;3.30;;;;;;;-144.47;61.94;52613.78;5030010;28;20468;-71
2023/07/05 07:53:51;;;;;;;13.18;3.67;;;;;;;-144.47;61.96;52582.00;5017008;28;20160;-70
2023/07/05 07:56:18;;;;;;;7.07;3.53;;;;;;;-144.47;61.89;52603.84;5017233;28;20432;-70
2023/07/05 07:58:49;;;;;;;8.63;3.70;;;;;;;-144.47;62.04;52631.66;5010207;28;20029;-70
2023/07/05 08:01:16;;;;;;;14.75;4.35;;;;;;;-144.47;61.70;52619.75;5010164;28;20029;-71
2023/07/05 08:03:42;;;;;;;7.00;3.05;;;;;;;-144.47;61.55;52607.84;5018197;28;20029;-70
2023/07/05 08:06:09;;;;;;;9.23;3.10;;;;;;;-144.47;61.05;52599.88;5030264;28;20029;-68
2023/07/05 08:08:36;;;;;;;6.57;3.13;;;;;;;-144.47;60.72;52601.88;5018951;28;20114;-71
2023/07/05 08:11:02;;;;;;;6.70;3.10;;;;;;;-144.47;60.22;52599.88;5016884;28;20040;-70
2023/07/05 08:13:30;;;;;;;8.25;2.70;;;;;;;-144.47;59.97;52611.81;5010777;28;20030;-68
2023/07/05 08:15:56;;;;;;;7.30;3.17;;;;;;;-144.47;59.61;52629.69;5023119;28;20029;-72
2023/07/05 08:18:22;;;;;;;6.25;2.60;;;;;;;-144.47;59.20;52645.56;5010153;28;20395;-71
2023/07/05 08:20:47;;;;;;;16.15;3.22;;;;;;;-144.47;59.15;52605.84;5011322;28;20069;-72
2023/07/05 08:23:13;;;;;;;8.32;2.85;;;;;;;-144.47;58.96;52627.69;5022351;28;20123;-71
2023/07/05 08:25:39;;;;;;;8.55;2.90;;;;;;;-144.47;58.44;52599.88;5010091;28;20062;-66
2023/07/05 08:28:05;;;;;;;4.45;2.13;;;;;;;-144.47;57.18;52597.91;5010369;28;20022;-70
2023/07/05 08:30:33;;;;;;;7.15;2.17;;;;;;;-144.47;57.16;52617.75;5009330;28;20365;-66
2023/07/05 08:32:59;;;;;;;5.17;2.50;;;;;;;-144.47;57.55;52599.88;5010499;28;20489;-70
2023/07/05 08:35:24;;;;;;;7.88;2.70;;;;;;;-144.47;56.62;52601.88;5025373;28;20120;-70
2023/07/05 08:37:49;;;;;;;6.07;2.17;;;;;;;-144.47;56.18;52617.75;5029035;28;20049;-70
2023/07/05 08:40:17;;;;;;;8.05;1.88;;;;;;;-144.47;55.54;52629.69;5021309;28;20039;-71
2023/07/05 08:43:06;;;;;;;18.35;1.95;;;;;;;-144.47;55.68;52621.72;5009545;28;20045;-69
2023/07/05 08:45:38;;;;;;;4.53;1.73;;;;;;;-144.47;55.56;52617.75;5012030;28;20064;-69
2023/07/05 08:48:06;;;;;;;8.20;1.98;;;;;;;-144.47;55.46;52617.75;5017356;28;20371;-70
2023/07/05 08:50:36;;;;;;;7.07;1.30;;;;;;;-144.47;54.65;52625.72;5027722;28;20037;-70
2023/07/05 08:53:19;;;;;;;5.70;1.40;;;;;;;-144.47;54.49;52607.84;5015598;28;20030;-69
2023/07/05 08:55:56;;;;;;;6.10;2.33;;;;;;;-144.47;54.03;52607.84;5019643;28;20427;-69
2023/07/05 08:58:29;;;;;;;6.53;1.60;;;;;;;-144.47;53.66;52597.91;5008107;28;20144;-69
2023/07/05 09:00:59;;;;;;;5.45;1.80;;;;;;;-144.47;53.51;52613.78;5017573;28;20038;-70
2023/07/05 09:03:28;;;;;;;11.40;1.65;;;;;;;-144.47;53.70;52603.84;5013824;28;20029;-70
2023/07/05 09:06:12;;;;;;;9.82;1.50;;;;;;;-144.47;53.63;52607.84;5023214;28;20444;-68
2023/07/05 09:08:52;;;;;;;5.68;1.65;;;;;;;-144.47;54.16;52597.91;5029235;28;20101;-72
2023/07/05 09:11:25;;;;;;;3.78;1.35;;;;;;;-144.47;54.25;52613.78;5029290;28;20047;-70
2023/07/05 09:14:10;;;;;;;5.07;1.60;;;;;;;-144.47;53.90;52615.78;5017220;28;20467;-70
2023/07/05 09:16:43;;;;;;;4.80;1.55;;;;;;;-144.47;53.23;52629.69;5009273;28;20034;-70
2023/07/05 09:19:41;;;;;;;6.97;1.55;;;;;;;-144.47;53.50;52637.63;5022487;28;20384;-70
2023/07/05 09:22:09;;;;;;;;;;;;;;;-144.47;53.24;52631.66;5009864;28;20110;-71
2023/07/05 09:24:40;;;;;;;4.95;1.85;;;;;;;-144.47;53.49;52617.75;5003924;28;19955;-69
2023/07/05 09:27:25;;;;;;;5.93;1.50;;;;;;;-144.47;52.74;52585.97;5021799;28;20033;-71
2023/07/05 09:30:00;;;;;;;7.35;1.88;;;;;;;-144.47;52.96;52621.72;5016186;28;20445;-70
2023/07/05 09:32:52;;;;;;;4.07;1.52;;;;;;;-144.47;52.41;52617.75;5024802;28;20026;-72
2023/07/05 09:35:23;;;;;;;4.80;1.40;;;;;;;-144.47;52.34;52645.56;5020579;28;20483;-71
2023/07/05 09:38:15;;;;;;;3.08;1.60;;;;;;;-144.47;52.09;52617.75;5025702;28;20017;-72
2023/07/05 09:41:05;;;;;;;7.32;1.85;;;;;;;-144.47;51.60;52635.63;4999777;28;20368;-70
2023/07/05 09:43:32;;;;;;;3.40;1.33;;;;;;;-144.47;50.92;52645.56;5007509;28;20025;-69
2023/07/05 09:46:06;;;;;;;3.35;1.50;;;;;;;-144.47;50.23;52651.53;5008667;28;20107;-66
2023/07/05 09:48:41;;;;;;;2.85;1.35;;;;;;;-144.47;49.65;52667.41;5020815;28;20033;-67
2023/07/05 09:51:06;;;;;;;9.65;1.50;;;;;;;-144.47;49.83;52649.53;5028002;28;20029;-70
2023/07/05 09:53:44;;;;;;;5.93;1.52;;;;;;;-144.47;49.74;52647.56;5009806;28;20128;-70
2023/07/05 09:56:26;;;;;;;3.40;1.50;;;;;;;-144.47;49.27;52623.72;4990472;28;20424;-67
2023/07/05 09:59:04;;;;;;;6.05;1.63;;;;;;;-144.47;49.26;52641.59;5007104;28;20026;-70
2023/07/05 10:01:30;;;;;;;3.47;1.48;;;;;;;-144.47;49.38;52645.56;5021258;28;20178;-72
2023/07/05 10:04:00;;;;;;;3.85;1.42;;;;;;;-144.47;49.09;52657.47;5007175;28;20025;-69
2023/07/05 10:06:28;;;;;;;4.07;1.25;;;;;;;-144.47;49.62;52633.66;5011153;28;20082;-71
2023/07/05 10:08:55;;;;;;;7.47;1.50;;;;;;;-144.47;49.83;52645.56;5027203;28;20026;-69
2023/07/05 10:11:33;;;;;;;4.85;1.70;;;;;;;-144.47;48.96;52641.59;5014185;28;20037;-69
2023/07/05 10:14:07;;;;;;;;;;;;;;;-144.47;49.33;52631.66;5015081;28;20080;-70
2023/07/05 10:16:46;;;;;;;5.63;1.50;;;;;;;-144.47;49.43;52647.56;5008094;28;20431;-71
2023/07/05 10:19:26;;;;;;;7.75;1.58;;;;;;;-144.47;49.21;52653.50;5021651;28;20454;-70
2023/07/05 10:22:04;;;;;;;10.77;2.05;;;;;;;-144.47;48.98;52633.66;5017453;28;20033;-68
2023/07/05 10:24:32;;;;;;;6.43;1.77;;;;;;;-144.47;48.79;52637.63;5026236;28;20356;-67
2023/07/05 10:27:07;;;;;;;4.57;1.35;;;;;;;-144.47;48.91;52663.44;4998277;28;20022;-66
2023/07/05 10:29:32;;;;;;;5.05;1.48;;;;;;;-144.47;48.92;52655.50;5013407;28;20041;-70
2023/07/05 10:31:58;;;;;;;4.90;1.52;;;;;;;-144.47;49.12;52641.59;5014381;28;20515;-68
2023/07/05 10:34:25;;;;;;;4.85;1.73;;;;;;;-144.47;49.31;52637.63;5012074;28;20469;-70
2023/07/05 10:36:51;;;;;;;8.30;2.08;;;;;;;-144.47;49.90;52645.56;5025365;28;20143;-69
2023/07/05 10:39:25;;;;;;;4.93;1.60;;;;;;;-144.47;50.00;52631.66;5019558;28;20482;-69
2023/07/05 10:41:57;;;;;;;6.88;1.70;;;;;;;-144.47;50.10;52645.56;4995238;28;20103;-69
2023/07/05 10:44:34;;;;;;;4.07;1.42;;;;;;;-144.47;50.15;52609.81;4989087;28;20396;-70
2023/07/05 10:47:02;;;;;;;5.32;1.33;;;;;;;-144.47;49.95;52641.59;5007630;28;20033;-70
2023/07/05 10:49:30;;;;;;;8.88;1.42;;;;;;;-144.47;49.98;52647.56;5015190;28;20048;-70
2023/07/05 10:52:01;;;;;;;3.97;1.60;;;;;;;-144.47;50.17;52655.50;5023021;28;20045;-70
2023/07/05 10:54:35;;;;;;;2.78;1.15;;;;;;;-144.47;50.15;52629.69;5019546;28;20419;-71
2023/07/05 10:57:19;;;;;;;3.08;1.25;;;;;;;-144.47;49.70;52649.53;5015060;28;20340;-71
2023/07/05 11:00:11;;;;;;;5.63;1.60;;;;;;;-144.47;49.11;52645.56;5025326;28;20028;-69
2023/07/05 11:02:55;;;;;;;3.55;1.50;;;;;;;-144.47;48.82;52651.53;4957964;28;20050;-72
2023/07/05 11:05:27;;;;;;;9.88;2.17;;;;;;;-144.47;49.01;52631.66;5018703;28;20034;-73
2023/07/05 11:07:57;;;;;;;2.83;1.30;;;;;;;-144.47;49.19;52635.63;5007466;28;20188;-69
2023/07/05 11:10:23;;;;;;;3.95;1.40;;;;;;;-144.47;49.10;52641.59;5014944;28;20148;-68
2023/07/05 11:12:49;;;;;;;7.50;1.40;;;;;;;-144.47;48.64;52661.44;4996627;28;20149;-73
2023/07/05 11:15:19;;;;;;;2.95;1.25;;;;;;;-144.47;48.62;52659.47;5016783;28;20479;-67
2023/07/05 11:17:46;;;;;;;9.18;1.48;;;;;;;-144.47;48.19;52687.28;5011420;28;20022;-69
2023/07/05 11:20:30;;;;;;;4.27;1.40;;;;;;;-144.47;47.72;52637.63;5025304;28;20032;-68